Terminal Aerodrome Forecast
Issued by NWS San Angelo, TX

Home | Current Version | Previous Version | Text Only | Print | Product List | Glossary On
Versions: 1 2 3 4 5 6 7 8 9 10 11 12 13 14 15 16 17 18 19 20 21 22
926
FTUS44 KSJT 260431 AAC
TAFSJT
TAF AMD
KSJT 260431Z 2605/2624 11005KT P6SM VCSH SCT040 BKN100
      TEMPO 2608/2611 BKN025
     FM261100 11005KT P6SM VCSH OVC018
     FM261500 13008KT P6SM VCSH OVC028
     FM261700 13009KT P6SM VCTS OVC035CB
     FM262200 10009KT 5SM SHRA VCTS OVC035CB=

USA.gov is the U.S. government's official web portal to all federal, state and local government web resources and services.